createdAt,value
2023-03-03T00:00:08.716Z,96.4
2023-03-03T00:01:12.436Z,96.4
2023-03-03T00:02:16.018Z,96.4
2023-03-03T00:03:19.537Z,96.3
2023-03-03T00:04:23.086Z,96.4
2023-03-03T00:05:26.929Z,96.4
2023-03-03T00:06:29.935Z,96.4
2023-03-03T00:07:33.382Z,96.5
2023-03-03T00:08:36.644Z,96.5
2023-03-03T00:09:40.344Z,96.5
2023-03-03T00:10:43.435Z,96.5
2023-03-03T00:11:46.703Z,96.5
2023-03-03T00:12:49.782Z,96.6
2023-03-03T00:13:52.400Z,96.5
2023-03-03T00:14:55.802Z,96.6
2023-03-03T00:15:58.591Z,96.7
2023-03-03T00:17:02.271Z,96.8
2023-03-03T00:18:04.977Z,96.8
2023-03-03T00:19:07.703Z,96.9
2023-03-03T00:20:10.884Z,97.1
2023-03-03T00:21:15.012Z,97.1
2023-03-03T00:22:17.753Z,97.3
2023-03-03T00:23:21.119Z,97.5
2023-03-03T00:24:24.484Z,97.5
2023-03-03T00:25:27.805Z,97.6
2023-03-03T00:26:31.539Z,97.6
2023-03-03T00:27:34.656Z,97.7
2023-03-03T00:28:38.043Z,97.7
2023-03-03T00:29:41.511Z,97.8
2023-03-03T00:30:45.508Z,97.9
2023-03-03T00:31:48.400Z,97.9
2023-03-03T00:32:52.236Z,98
2023-03-03T00:33:55.132Z,98
2023-03-03T00:34:58.547Z,98.1
2023-03-03T00:36:02.209Z,98.2
2023-03-03T00:37:06.093Z,98.2
2023-03-03T00:38:09.481Z,98.1
2023-03-03T00:39:12.578Z,98
2023-03-03T00:40:16.273Z,98
2023-03-03T00:41:18.717Z,98
2023-03-03T00:42:22.173Z,97.9
2023-03-03T00:43:26.186Z,97.8
2023-03-03T00:44:29.582Z,97.8
2023-03-03T00:45:33.104Z,97.7
2023-03-03T00:46:36.905Z,97.8
2023-03-03T00:47:40.900Z,97.8
2023-03-03T00:48:44.426Z,97.8
2023-03-03T00:49:47.137Z,97.8
2023-03-03T00:50:49.569Z,97.9
2023-03-03T00:51:52.380Z,97.9
2023-03-03T00:52:56.500Z,97.8
2023-03-03T00:53:59.839Z,97.9
2023-03-03T00:55:02.394Z,97.9
2023-03-03T00:56:04.909Z,97.8
2023-03-03T00:57:08.082Z,97.8
2023-03-03T00:58:11.608Z,97.8
2023-03-03T00:59:14.425Z,97.9
2023-03-03T01:00:17.516Z,97.8
2023-03-03T01:01:20.888Z,97.7
2023-03-03T01:02:24.661Z,97.6
2023-03-03T01:03:28.247Z,97.6
2023-03-03T01:04:31.718Z,97.5
2023-03-03T01:05:34.493Z,97.3
2023-03-03T01:06:37.534Z,97.2
2023-03-03T01:07:41.368Z,97.2
2023-03-03T01:08:45.515Z,97.1
2023-03-03T01:09:48.821Z,97.1
2023-03-03T01:10:52.314Z,97
2023-03-03T01:11:55.168Z,97.2
2023-03-03T01:12:58.225Z,97.2
2023-03-03T01:14:01.500Z,97.2
2023-03-03T01:15:05.101Z,97.3
2023-03-03T01:16:08.419Z,97.4
2023-03-03T01:17:11.895Z,97.4
2023-03-03T01:18:14.681Z,97.4
2023-03-03T01:19:18.826Z,97.5
2023-03-03T01:20:21.558Z,97.6
2023-03-03T01:21:24.010Z,97.6
2023-03-03T01:22:26.794Z,97.6
2023-03-03T01:23:29.907Z,97.6
2023-03-03T01:24:34.594Z,97.7
2023-03-03T01:25:37.581Z,97.7
2023-03-03T01:26:40.314Z,97.8
2023-03-03T01:27:43.313Z,97.8
2023-03-03T01:28:46.119Z,97.9
2023-03-03T01:29:48.560Z,97.9
2023-03-03T01:30:51.673Z,97.8
2023-03-03T01:31:54.791Z,97.8
2023-03-03T01:32:57.998Z,97.8
2023-03-03T01:34:00.457Z,97.7
2023-03-03T01:35:03.836Z,97.7
2023-03-03T01:36:06.362Z,97.7
2023-03-03T01:37:09.344Z,97.7
2023-03-03T01:38:12.683Z,97.8
2023-03-03T01:39:15.575Z,97.9
2023-03-03T01:40:19.490Z,98
2023-03-03T01:41:22.773Z,98.1
2023-03-03T01:42:26.144Z,98.1
2023-03-03T01:43:29.463Z,98.2
2023-03-03T01:44:33.563Z,98.2
2023-03-03T01:45:36.552Z,98.3
2023-03-03T01:46:39.426Z,98.3
2023-03-03T01:47:42.440Z,98.3
2023-03-03T01:48:45.500Z,98
2023-03-03T01:49:48.441Z,98
2023-03-03T01:50:51.175Z,97.9
2023-03-03T01:51:54.237Z,97.8
2023-03-03T01:52:57.042Z,97.8
2023-03-03T01:54:00.158Z,97.8
2023-03-03T01:55:03.701Z,97.8
2023-03-03T01:56:07.501Z,97.8
2023-03-03T01:57:10.807Z,97.8
2023-03-03T01:58:14.269Z,97.8
2023-03-03T01:59:17.075Z,98
2023-03-03T02:00:20.796Z,98
2023-03-03T02:01:23.970Z,98.1
2023-03-03T02:02:27.461Z,98.1
2023-03-03T02:03:30.942Z,98.1
2023-03-03T02:04:33.687Z,98.1
2023-03-03T02:05:36.436Z,98.2
2023-03-03T02:06:39.140Z,98.3
2023-03-03T02:07:42.618Z,98.5
2023-03-03T02:08:45.658Z,98.6
2023-03-03T02:09:48.831Z,98.7
2023-03-03T02:10:52.218Z,98.7
2023-03-03T02:11:56.499Z,98.8
2023-03-03T02:12:59.681Z,98.7
2023-03-03T02:14:03.082Z,98.7
2023-03-03T02:15:06.821Z,98.8
2023-03-03T02:16:10.533Z,98.9
2023-03-03T02:17:14.405Z,98.9
2023-03-03T02:18:17.509Z,98.9
2023-03-03T02:19:20.611Z,98.9
2023-03-03T02:20:23.415Z,98.7
2023-03-03T02:21:26.210Z,98.7
2023-03-03T02:22:29.916Z,98.7
2023-03-03T02:23:33.688Z,98.6
2023-03-03T02:24:36.828Z,98.6
2023-03-03T02:25:39.738Z,98.6
2023-03-03T02:26:42.890Z,98.5
2023-03-03T02:27:47.008Z,98.4
2023-03-03T02:28:50.270Z,98.4
2023-03-03T02:29:53.082Z,98.4
2023-03-03T02:30:56.419Z,98.4
2023-03-03T02:32:00.085Z,98.3
2023-03-03T02:33:03.556Z,98.1
2023-03-03T02:34:05.975Z,98
2023-03-03T02:35:08.684Z,97.8
2023-03-03T02:36:12.139Z,97.8
2023-03-03T02:37:15.306Z,97.8
2023-03-03T02:38:18.718Z,97.8
2023-03-03T02:39:22.028Z,97.7
2023-03-03T02:40:25.161Z,97.6
2023-03-03T02:41:27.612Z,97.6
2023-03-03T02:42:31.416Z,97.5
2023-03-03T02:43:35.219Z,97.4
2023-03-03T02:44:38.667Z,97.5
2023-03-03T02:45:42.302Z,97.4
2023-03-03T02:46:45.351Z,97.3
2023-03-03T02:47:48.201Z,97.3
2023-03-03T02:48:51.834Z,97.4
2023-03-03T02:49:54.916Z,97.6
2023-03-03T02:50:57.664Z,97.6
2023-03-03T02:52:00.748Z,97.7
2023-03-03T02:53:04.075Z,97.7
2023-03-03T02:54:06.959Z,97.8
2023-03-03T02:55:09.764Z,97.9
2023-03-03T02:56:13.498Z,97.8
2023-03-03T02:57:16.621Z,97.9
2023-03-03T02:58:20.025Z,97.9
2023-03-03T02:59:24.125Z,98.2
2023-03-03T03:00:27.548Z,98.1
2023-03-03T03:01:30.053Z,98.1
2023-03-03T03:02:32.786Z,98.2
2023-03-03T03:03:36.500Z,98.3
2023-03-03T03:04:39.931Z,98.3
2023-03-03T03:05:42.702Z,98.3
2023-03-03T03:06:45.813Z,98.3
2023-03-03T03:07:48.965Z,98.2
2023-03-03T03:08:52.432Z,98.1
2023-03-03T03:09:55.505Z,98.1
2023-03-03T03:10:58.537Z,98.1
2023-03-03T03:12:01.336Z,98.1
2023-03-03T03:13:04.716Z,98
2023-03-03T03:14:07.552Z,98
2023-03-03T03:15:11.400Z,98
2023-03-03T03:16:15.341Z,97.9
2023-03-03T03:17:18.427Z,97.9
2023-03-03T03:18:21.273Z,97.8
2023-03-03T03:19:24.324Z,97.9
2023-03-03T03:20:26.996Z,97.9
2023-03-03T03:21:30.367Z,97.9
2023-03-03T03:22:33.778Z,97.9
2023-03-03T03:23:37.230Z,97.8
2023-03-03T03:24:40.565Z,97.8
2023-03-03T03:25:43.655Z,97.8
2023-03-03T03:26:46.595Z,97.9
2023-03-03T03:27:50.337Z,97.9
2023-03-03T03:28:53.693Z,97.9
2023-03-03T03:29:56.944Z,97.9
2023-03-03T03:31:01.366Z,97.8
2023-03-03T03:32:05.546Z,97.7
2023-03-03T03:33:08.421Z,97.6
2023-03-03T03:34:11.541Z,97.5
2023-03-03T03:35:15.212Z,97.5
2023-03-03T03:36:18.258Z,97.6
2023-03-03T03:37:20.693Z,97.6
2023-03-03T03:38:24.132Z,97.7
2023-03-03T03:39:26.936Z,97.6
2023-03-03T03:40:29.776Z,97.6
2023-03-03T03:41:33.161Z,97.6
2023-03-03T03:42:36.500Z,97.4
2023-03-03T03:43:39.632Z,97.3
2023-03-03T03:44:42.808Z,97.2
2023-03-03T03:45:46.580Z,97.1
2023-03-03T03:46:50.447Z,97
2023-03-03T03:47:54.167Z,97.1
2023-03-03T03:48:57.149Z,97
2023-03-03T03:50:00.160Z,96.9
2023-03-03T03:51:03.191Z,96.8
2023-03-03T03:52:06.549Z,97.8
2023-03-03T03:53:10.301Z,98.2
2023-03-03T03:54:14.031Z,98.6
2023-03-03T03:55:17.389Z,98.4
2023-03-03T03:56:20.399Z,98.8
2023-03-03T03:57:27.174Z,99
2023-03-03T03:58:30.280Z,99.1
2023-03-03T03:59:33.366Z,98.5
2023-03-03T04:00:36.436Z,97.7
2023-03-03T04:01:40.605Z,97.2
2023-03-03T04:02:45.321Z,96.9
2023-03-03T04:03:48.692Z,96.1
2023-03-03T04:04:51.526Z,96.1
2023-03-03T04:05:54.327Z,96.2
2023-03-03T04:06:57.227Z,96.1
2023-03-03T04:08:00.487Z,96.1
2023-03-03T04:09:03.297Z,96.2
2023-03-03T04:10:05.528Z,96.3
2023-03-03T04:11:08.947Z,96.3
2023-03-03T04:12:11.650Z,96.6
2023-03-03T04:13:14.912Z,96.8
2023-03-03T04:14:18.022Z,96.8
2023-03-03T04:15:21.665Z,96.8
2023-03-03T04:16:24.759Z,96.7
2023-03-03T04:17:27.933Z,96.8
2023-03-03T04:18:31.734Z,97
2023-03-03T04:19:33.973Z,97
2023-03-03T04:20:37.703Z,97.1
2023-03-03T04:21:40.715Z,97.2
2023-03-03T04:22:44.071Z,97.3
2023-03-03T04:23:47.828Z,97.4
2023-03-03T04:24:50.990Z,97.5
2023-03-03T04:25:54.155Z,97.5
2023-03-03T04:26:57.511Z,97.3
2023-03-03T04:27:59.991Z,97.3
2023-03-03T04:29:03.114Z,97.2
2023-03-03T04:30:05.576Z,97.1
2023-03-03T04:31:09.293Z,97
2023-03-03T04:32:12.943Z,96.9
2023-03-03T04:33:16.145Z,96.9
2023-03-03T04:34:19.977Z,96.8
2023-03-03T04:35:23.986Z,96.9
2023-03-03T04:36:27.796Z,96.9
2023-03-03T04:37:31.478Z,97
2023-03-03T04:38:35.104Z,96.9
2023-03-03T04:39:38.556Z,96.8
2023-03-03T04:40:42.822Z,96.7
2023-03-03T04:41:46.274Z,96.7
2023-03-03T04:42:50.045Z,96.7
2023-03-03T04:43:53.190Z,96.7
2023-03-03T04:44:56.190Z,96.8
2023-03-03T04:45:59.066Z,96.7
2023-03-03T04:47:01.932Z,96.7
2023-03-03T04:48:04.655Z,96.6
2023-03-03T04:49:13.298Z,96.7
2023-03-03T04:50:16.821Z,96.7
2023-03-03T04:51:19.946Z,96.7
2023-03-03T04:52:21.837Z,96.7
2023-03-03T04:53:24.654Z,96.9
2023-03-03T04:54:28.151Z,96.7
2023-03-03T04:55:30.850Z,96.6
2023-03-03T04:56:33.546Z,96.7
2023-03-03T04:57:37.338Z,96.9
2023-03-03T04:58:40.337Z,97
2023-03-03T04:59:43.830Z,97.1
2023-03-03T05:00:46.267Z,97.1
2023-03-03T05:01:48.835Z,97.2
2023-03-03T05:02:52.663Z,97.1
2023-03-03T05:03:56.289Z,97.3
2023-03-03T05:04:59.723Z,97.3
2023-03-03T05:06:03.730Z,97.4
2023-03-03T05:07:06.575Z,97.4
2023-03-03T05:08:10.297Z,97.5
2023-03-03T05:09:13.659Z,97.6
2023-03-03T05:10:17.411Z,97.6
2023-03-03T05:11:21.178Z,97.6
2023-03-03T05:12:23.949Z,97.6
2023-03-03T05:13:26.667Z,97.8
2023-03-03T05:14:30.116Z,97.9
2023-03-03T05:15:32.980Z,97.8
2023-03-03T05:16:35.699Z,98
2023-03-03T05:17:39.055Z,98
2023-03-03T05:18:42.139Z,98
2023-03-03T05:19:45.472Z,98
2023-03-03T05:20:49.201Z,98
2023-03-03T05:21:53.668Z,98
2023-03-03T05:22:56.660Z,98
2023-03-03T05:23:59.819Z,97.9
2023-03-03T05:25:03.114Z,97.9
2023-03-03T05:26:06.134Z,97.9
2023-03-03T05:27:09.499Z,98.1
2023-03-03T05:28:12.052Z,98.2
2023-03-03T05:29:15.174Z,98.4
2023-03-03T05:30:17.701Z,98.4
2023-03-03T05:31:20.849Z,98.4
2023-03-03T05:32:24.730Z,98.4
2023-03-03T05:33:28.308Z,98.4
2023-03-03T05:34:31.195Z,98.4
2023-03-03T05:35:34.603Z,98.5
2023-03-03T05:36:38.474Z,98.4
2023-03-03T05:37:42.261Z,98.7
2023-03-03T05:38:45.662Z,98.7
2023-03-03T05:39:49.005Z,98.6
2023-03-03T05:40:52.508Z,98.5
2023-03-03T05:41:55.934Z,98.3
2023-03-03T05:42:58.951Z,98.1
2023-03-03T05:44:02.224Z,97.9
2023-03-03T05:45:05.991Z,97.8
2023-03-03T05:46:09.516Z,97.5
2023-03-03T05:47:12.969Z,97.3
2023-03-03T05:48:17.248Z,97.3
2023-03-03T05:49:20.301Z,97.3
2023-03-03T05:50:23.021Z,97.2
2023-03-03T05:51:26.747Z,97.2
2023-03-03T05:52:30.157Z,97
2023-03-03T05:53:34.207Z,96.9
2023-03-03T05:54:37.632Z,96.9
2023-03-03T05:55:40.733Z,96.6
2023-03-03T05:56:43.509Z,96.3
2023-03-03T05:57:45.964Z,96.3
2023-03-03T05:58:49.266Z,96.3
2023-03-03T05:59:52.719Z,96.2
2023-03-03T06:00:56.146Z,96.3
2023-03-03T06:01:59.556Z,96.2
2023-03-03T06:03:02.981Z,96.3
2023-03-03T06:04:06.096Z,96.3
2023-03-03T06:05:09.320Z,96.2
2023-03-03T06:06:12.190Z,96.3
2023-03-03T06:07:15.343Z,96.2
2023-03-03T06:08:18.582Z,96.2
2023-03-03T06:09:22.481Z,96.1
2023-03-03T06:10:25.621Z,96.2
2023-03-03T06:11:29.075Z,96.3
2023-03-03T06:12:32.165Z,96.3
2023-03-03T06:13:35.525Z,96.1
2023-03-03T06:14:37.831Z,96
2023-03-03T06:15:41.465Z,95.9
2023-03-03T06:16:45.354Z,95.9
2023-03-03T06:17:48.976Z,95.9
2023-03-03T06:18:51.489Z,95.9
2023-03-03T06:19:54.841Z,95.9
2023-03-03T06:20:57.673Z,96
2023-03-03T06:22:02.280Z,96
2023-03-03T06:23:05.952Z,96
2023-03-03T06:24:09.462Z,96.1
2023-03-03T06:25:13.246Z,96.2
2023-03-03T06:26:16.488Z,96.3
2023-03-03T06:27:20.112Z,96.3
2023-03-03T06:28:23.757Z,96.3
2023-03-03T06:29:27.560Z,96.3
2023-03-03T06:30:30.273Z,96.1
2023-03-03T06:31:33.928Z,96.1
2023-03-03T06:32:37.654Z,96.1
2023-03-03T06:33:40.789Z,96.1
2023-03-03T06:34:44.449Z,96
2023-03-03T06:35:47.648Z,96
2023-03-03T06:36:51.035Z,96.2
2023-03-03T06:37:54.199Z,96.2
2023-03-03T06:38:57.283Z,96.3
2023-03-03T06:40:01.443Z,96.4
2023-03-03T06:41:05.562Z,96.4
2023-03-03T06:42:08.276Z,96.5
2023-03-03T06:43:10.723Z,96.6
2023-03-03T06:44:13.212Z,96.7
2023-03-03T06:45:16.236Z,96.7
2023-03-03T06:46:19.615Z,96.8
2023-03-03T06:47:22.368Z,97
2023-03-03T06:48:25.793Z,97.1
2023-03-03T06:49:28.814Z,97
2023-03-03T06:50:32.320Z,97
2023-03-03T06:51:35.975Z,97
2023-03-03T06:52:39.344Z,97.1
2023-03-03T06:53:42.409Z,97.1
2023-03-03T06:54:45.130Z,97.2
2023-03-03T06:55:47.949Z,97.2
2023-03-03T06:56:51.734Z,97.1
2023-03-03T06:57:55.410Z,97.2
2023-03-03T06:58:58.399Z,97.2
2023-03-03T07:00:01.115Z,97.2
2023-03-03T07:01:04.311Z,97.1
2023-03-03T07:02:07.820Z,97.2
2023-03-03T07:03:10.530Z,97.1
2023-03-03T07:04:13.665Z,96.9
2023-03-03T07:05:16.255Z,96.8
2023-03-03T07:06:19.140Z,96.7
2023-03-03T07:07:22.139Z,96.7
2023-03-03T07:08:25.194Z,96.7
2023-03-03T07:09:28.264Z,96.9
2023-03-03T07:10:31.560Z,96.9
2023-03-03T07:11:34.534Z,97
2023-03-03T07:12:38.601Z,97.1
2023-03-03T07:13:41.505Z,97.2
2023-03-03T07:14:44.524Z,97.3
2023-03-03T07:15:47.062Z,97.2
2023-03-03T07:16:50.270Z,97.1
2023-03-03T07:17:53.653Z,97.1
2023-03-03T07:18:57.016Z,97
2023-03-03T07:20:00.797Z,97.1
2023-03-03T07:21:03.952Z,96.9
2023-03-03T07:22:07.060Z,96.9
2023-03-03T07:23:10.467Z,96.7
2023-03-03T07:24:13.796Z,96.2
2023-03-03T07:25:17.238Z,96.2
2023-03-03T07:26:20.609Z,96.1
2023-03-03T07:27:23.770Z,96.1
2023-03-03T07:28:27.867Z,96.1
2023-03-03T07:29:30.980Z,96.1
2023-03-03T07:30:35.269Z,96.1
2023-03-03T07:31:38.115Z,96.3
2023-03-03T07:32:40.563Z,96.4
2023-03-03T07:33:43.565Z,96.5
2023-03-03T07:34:45.897Z,96.8
2023-03-03T07:35:49.589Z,97.1
2023-03-03T07:36:53.466Z,97.3
2023-03-03T07:37:57.482Z,97.4
2023-03-03T07:39:01.402Z,97.7
2023-03-03T07:40:04.780Z,97.6
2023-03-03T07:41:08.380Z,97.7
2023-03-03T07:42:11.863Z,97.8
2023-03-03T07:43:15.604Z,98
2023-03-03T07:44:19.662Z,98.3
2023-03-03T07:45:23.265Z,98.3
2023-03-03T07:46:26.358Z,98.5
2023-03-03T07:47:29.806Z,98.7
2023-03-03T07:48:32.526Z,98.6
2023-03-03T07:49:35.512Z,98.7
2023-03-03T07:50:38.965Z,98.6
2023-03-03T07:51:42.770Z,98.5
2023-03-03T07:52:46.213Z,98.6
2023-03-03T07:53:49.876Z,98.7
2023-03-03T07:54:53.214Z,98.8
2023-03-03T07:55:56.564Z,98.8
2023-03-03T07:56:59.281Z,98.7
2023-03-03T07:58:02.769Z,98.6
2023-03-03T07:59:06.208Z,98.3
2023-03-03T08:00:10.322Z,98.2
2023-03-03T08:01:14.013Z,98.3
2023-03-03T08:02:16.729Z,98.5
2023-03-03T08:03:19.389Z,98.8
2023-03-03T08:04:23.888Z,99
2023-03-03T08:05:27.745Z,99
2023-03-03T08:06:30.754Z,98.7
2023-03-03T08:07:34.038Z,98.5
2023-03-03T08:08:37.206Z,98.2
2023-03-03T08:09:40.345Z,97.8
2023-03-03T08:10:44.943Z,97.7
2023-03-03T08:11:48.753Z,97.8
2023-03-03T08:12:51.695Z,97.7
2023-03-03T08:13:54.597Z,97.8
2023-03-03T08:14:58.366Z,97.8
2023-03-03T08:16:02.789Z,97.8
2023-03-03T08:17:05.902Z,97.9
2023-03-03T08:18:09.303Z,97.9
2023-03-03T08:19:12.966Z,98.3
2023-03-03T08:20:16.025Z,98
2023-03-03T08:21:18.742Z,97.8
2023-03-03T08:22:21.538Z,97.8
2023-03-03T08:23:24.551Z,97.9
2023-03-03T08:24:27.280Z,97.9
2023-03-03T08:25:30.678Z,97.9
2023-03-03T08:26:34.700Z,97.8
2023-03-03T08:27:37.513Z,97.6
2023-03-03T08:28:40.875Z,97.5
2023-03-03T08:29:43.682Z,97.5
2023-03-03T08:30:48.696Z,97.6
2023-03-03T08:31:53.248Z,97.7
2023-03-03T08:32:57.117Z,97.8
2023-03-03T08:33:59.974Z,97.9
2023-03-03T08:35:02.421Z,97.9
2023-03-03T08:36:05.406Z,97.8
2023-03-03T08:37:09.834Z,97.6
2023-03-03T08:38:13.234Z,97.3
2023-03-03T08:39:16.768Z,97.5
2023-03-03T08:40:20.767Z,97.6
2023-03-03T08:41:23.829Z,97.7
2023-03-03T08:42:26.553Z,97.8
2023-03-03T08:43:29.841Z,97.7
2023-03-03T08:44:32.914Z,97.8
2023-03-03T08:45:36.312Z,98
2023-03-03T08:46:39.900Z,98.2
2023-03-03T08:47:43.320Z,98.2
2023-03-03T08:48:47.340Z,98.1
2023-03-03T08:49:50.804Z,98
2023-03-03T08:50:53.618Z,97.9
2023-03-03T08:51:56.676Z,97.9
2023-03-03T08:53:00.127Z,97.7
2023-03-03T08:54:03.651Z,97.5
2023-03-03T08:55:10.085Z,97.5
2023-03-03T08:56:13.434Z,97.4
2023-03-03T08:57:17.180Z,97.4
2023-03-03T08:58:34.922Z,97.4
2023-03-03T08:59:39.743Z,97.4
2023-03-03T09:00:42.981Z,97.3
2023-03-03T09:01:46.999Z,97.2
2023-03-03T09:02:51.493Z,97.1
2023-03-03T09:03:55.199Z,97
2023-03-03T09:04:58.896Z,97.2
2023-03-03T09:06:01.953Z,97.3
2023-03-03T09:07:04.818Z,97.3
2023-03-03T09:08:07.819Z,97.3
2023-03-03T09:09:10.565Z,97.3
2023-03-03T09:10:13.913Z,97.1
2023-03-03T09:11:17.119Z,96.9
2023-03-03T09:12:20.275Z,97
2023-03-03T09:13:23.361Z,97
2023-03-03T09:14:26.518Z,96.7
2023-03-03T09:15:30.177Z,96.7
2023-03-03T09:16:33.869Z,96.5
2023-03-03T09:17:37.561Z,96.5
2023-03-03T09:18:41.682Z,96.4
2023-03-03T09:19:45.152Z,96.3
2023-03-03T09:20:48.512Z,95.8
2023-03-03T09:21:51.877Z,95.5
2023-03-03T09:22:55.512Z,95.2
2023-03-03T09:23:58.989Z,95.3
2023-03-03T09:25:02.369Z,95.3
2023-03-03T09:26:05.727Z,95.4
2023-03-03T09:27:08.249Z,95.6
2023-03-03T09:28:11.590Z,95.6
2023-03-03T09:29:15.037Z,95.5
2023-03-03T09:30:18.512Z,95.5
2023-03-03T09:31:22.031Z,95.8
2023-03-03T09:32:25.727Z,96
2023-03-03T09:33:29.598Z,96.1
2023-03-03T09:34:33.198Z,96.3
2023-03-03T09:35:36.409Z,96.4
2023-03-03T09:36:39.534Z,96.6
2023-03-03T09:37:41.996Z,97
2023-03-03T09:38:45.375Z,97
2023-03-03T09:39:48.435Z,96.9
2023-03-03T09:40:52.182Z,96.8
2023-03-03T09:41:55.183Z,96.7
2023-03-03T09:42:58.558Z,96.8
2023-03-03T09:44:01.317Z,96.7
2023-03-03T09:45:04.722Z,96.7
2023-03-03T09:46:08.226Z,96.9
2023-03-03T09:47:11.054Z,97.1
2023-03-03T09:48:14.773Z,97.2
2023-03-03T09:49:18.311Z,97.4
2023-03-03T09:50:22.119Z,97.4
2023-03-03T09:51:24.653Z,97.3
2023-03-03T09:52:28.432Z,97.2
2023-03-03T09:53:31.551Z,97.1
2023-03-03T09:54:34.924Z,96.8
2023-03-03T09:55:38.778Z,96.6
2023-03-03T09:56:41.856Z,96
2023-03-03T09:57:45.085Z,96
2023-03-03T09:58:48.371Z,96.2
2023-03-03T09:59:51.719Z,96.3
2023-03-03T10:00:55.075Z,96.3
2023-03-03T10:01:58.884Z,96.4
2023-03-03T10:03:02.038Z,96.1
2023-03-03T10:04:05.426Z,95.9
2023-03-03T10:05:09.026Z,96.1
2023-03-03T10:06:12.814Z,96
2023-03-03T10:07:15.597Z,96.2
2023-03-03T10:08:19.078Z,96.2
2023-03-03T10:09:22.146Z,95.7
2023-03-03T10:10:25.131Z,95.9
2023-03-03T10:11:27.934Z,95.9
2023-03-03T10:12:30.772Z,95.9
2023-03-03T10:13:34.509Z,95.9
2023-03-03T10:14:37.504Z,95.8
2023-03-03T10:15:40.631Z,96.1
2023-03-03T10:16:44.005Z,95.8
2023-03-03T10:17:48.575Z,96.1
2023-03-03T10:18:53.016Z,96.5
2023-03-03T10:19:56.258Z,96.5
2023-03-03T10:21:00.017Z,96.7
2023-03-03T10:22:04.113Z,96.9
2023-03-03T10:23:07.494Z,96.9
2023-03-03T10:24:10.299Z,96.9
2023-03-03T10:25:13.747Z,96.9
2023-03-03T10:26:16.461Z,96.8
2023-03-03T10:27:19.621Z,96.4
2023-03-03T10:28:23.010Z,95.9
2023-03-03T10:29:26.293Z,95.5
2023-03-03T10:31:12.526Z,95.2
2023-03-03T10:32:31.441Z,95.2
2023-03-03T10:33:36.118Z,95.5
2023-03-03T10:34:39.599Z,95.5
2023-03-03T10:36:04.819Z,95.5
2023-03-03T10:37:11.810Z,95.3
2023-03-03T10:38:15.893Z,95.5
2023-03-03T10:39:19.291Z,95.8
2023-03-03T10:40:22.689Z,95.6
2023-03-03T10:41:26.056Z,95.5
2023-03-03T10:42:29.127Z,95.1
2023-03-03T10:43:33.931Z,94.8
2023-03-03T10:44:37.687Z,94.7
2023-03-03T10:45:41.272Z,94.6
2023-03-03T10:46:44.882Z,95.2
2023-03-03T10:47:48.544Z,95
2023-03-03T10:48:51.921Z,95.3
2023-03-03T10:49:55.909Z,95.4
2023-03-03T10:51:00.578Z,95.4
2023-03-03T10:52:04.254Z,95.4
2023-03-03T10:53:08.525Z,95.5
2023-03-03T10:54:12.231Z,95.6
2023-03-03T10:55:15.379Z,95.8
2023-03-03T10:56:18.084Z,96.1
2023-03-03T10:57:21.421Z,96.3
2023-03-03T10:58:24.765Z,96.6
2023-03-03T10:59:27.805Z,96.1
2023-03-03T11:00:30.976Z,96
2023-03-03T11:01:34.944Z,95.9
2023-03-03T11:02:39.100Z,95.9
2023-03-03T11:03:42.136Z,94.8
2023-03-03T11:04:45.536Z,94.3
2023-03-03T11:05:49.042Z,94.5
2023-03-03T11:06:53.083Z,94.7
2023-03-03T11:07:56.158Z,94.2
2023-03-03T11:09:01.871Z,94
2023-03-03T11:10:05.658Z,93.9
2023-03-03T11:11:09.021Z,93.7
2023-03-03T11:12:11.533Z,93.7
2023-03-03T11:13:14.988Z,93.9
2023-03-03T11:14:18.359Z,93.8
2023-03-03T11:15:21.173Z,93.5
2023-03-03T11:16:24.243Z,93.7
2023-03-03T11:17:28.133Z,93.9
2023-03-03T11:18:31.732Z,93.7
2023-03-03T11:19:35.876Z,93.7
2023-03-03T11:20:38.314Z,93.9
2023-03-03T11:21:42.322Z,94.3
2023-03-03T11:22:45.521Z,94.6
2023-03-03T11:23:49.136Z,94.3
2023-03-03T11:24:53.395Z,93.7
2023-03-03T11:25:56.879Z,93.5
2023-03-03T11:27:00.589Z,93.3
2023-03-03T11:28:04.055Z,93.3
2023-03-03T11:29:07.232Z,93.8
2023-03-03T11:30:11.232Z,94.2
2023-03-03T11:31:14.843Z,94.3
2023-03-03T11:32:18.406Z,94.3
2023-03-03T11:33:21.607Z,94.8
2023-03-03T11:34:24.589Z,94.9
2023-03-03T11:35:27.868Z,95.1
2023-03-03T11:36:34.872Z,95.4
2023-03-03T11:37:38.295Z,95.7
2023-03-03T11:38:40.899Z,95.6
2023-03-03T11:39:44.102Z,95.5
2023-03-03T11:40:48.267Z,95.6
2023-03-03T11:41:51.958Z,95.9
2023-03-03T11:42:54.492Z,95.9
2023-03-03T11:43:57.492Z,95.7
2023-03-03T11:45:00.609Z,96
2023-03-03T11:46:04.455Z,96.1
2023-03-03T11:47:07.709Z,95.9
2023-03-03T11:48:10.217Z,95.5
2023-03-03T11:49:13.943Z,95.3
2023-03-03T11:50:16.757Z,95.4
2023-03-03T11:51:20.377Z,95.6
2023-03-03T11:52:23.505Z,95.7
2023-03-03T11:53:26.229Z,95.5
2023-03-03T11:54:29.375Z,95.5
2023-03-03T11:55:32.843Z,95.6
2023-03-03T11:56:37.074Z,96
2023-03-03T11:57:40.355Z,96.1
2023-03-03T11:58:44.022Z,96
2023-03-03T11:59:47.429Z,95.6
2023-03-03T12:00:50.283Z,95.4
2023-03-03T12:01:53.924Z,95
2023-03-03T12:02:57.715Z,95.5
2023-03-03T12:04:01.651Z,96
2023-03-03T12:05:05.367Z,96.5
2023-03-03T12:06:13.433Z,96.6
2023-03-03T12:07:21.127Z,96.6
2023-03-03T12:08:24.502Z,96
2023-03-03T12:09:27.955Z,95.9
2023-03-03T12:10:31.392Z,96.3
2023-03-03T12:11:35.136Z,96
2023-03-03T12:12:39.302Z,95.8
2023-03-03T12:13:43.039Z,95.7
2023-03-03T12:14:46.050Z,95.9
2023-03-03T12:15:49.577Z,96.2
2023-03-03T12:16:53.062Z,95.9
2023-03-03T12:17:56.065Z,95.2
2023-03-03T12:18:59.169Z,94.7
2023-03-03T12:20:02.013Z,95
2023-03-03T12:21:05.664Z,94.8
2023-03-03T12:22:08.241Z,94.9
2023-03-03T12:23:11.885Z,94.9
2023-03-03T12:24:15.321Z,95
2023-03-03T12:25:17.548Z,95
2023-03-03T12:26:21.042Z,94.6
2023-03-03T12:27:24.812Z,94.3
2023-03-03T12:28:28.990Z,94.2
2023-03-03T12:29:32.144Z,94.1
2023-03-03T12:30:35.536Z,94.2
2023-03-03T12:31:38.972Z,94.4
2023-03-03T12:32:42.222Z,94.3
2023-03-03T12:33:45.677Z,94.3
2023-03-03T12:34:49.211Z,94.3
2023-03-03T12:35:52.785Z,94.4
2023-03-03T12:36:55.708Z,94.1
2023-03-03T12:37:58.699Z,93.7
2023-03-03T12:39:02.350Z,92.7
2023-03-03T12:40:05.171Z,92.3
2023-03-03T12:41:08.518Z,91.8
2023-03-03T12:42:11.939Z,91.7
2023-03-03T12:43:15.459Z,91.8
2023-03-03T12:44:19.684Z,91.7
2023-03-03T12:45:23.359Z,91.6
2023-03-03T12:46:30.991Z,91.6
2023-03-03T12:47:34.833Z,91.5
2023-03-03T12:48:37.880Z,91.8
2023-03-03T12:50:07.715Z,92.7
2023-03-03T12:51:14.667Z,92.1
2023-03-03T12:52:18.676Z,91.9
2023-03-03T12:53:21.762Z,92
2023-03-03T12:54:25.007Z,92
2023-03-03T12:55:29.038Z,93.8
2023-03-03T12:56:32.754Z,96
2023-03-03T12:57:35.808Z,99
2023-03-03T12:58:39.135Z,98.2
2023-03-03T12:59:43.211Z,93.6
2023-03-03T13:00:46.631Z,88.5
2023-03-03T13:01:50.759Z,87.6
2023-03-03T13:02:53.365Z,87.8
2023-03-03T13:03:57.963Z,87.9
2023-03-03T13:05:01.150Z,88.6
2023-03-03T13:06:04.054Z,88.9
2023-03-03T13:07:06.813Z,89
2023-03-03T13:08:10.758Z,89.5
2023-03-03T13:09:13.609Z,90.1
2023-03-03T13:10:16.978Z,90.5
2023-03-03T13:11:20.437Z,90.4
2023-03-03T13:12:23.830Z,90.7
2023-03-03T13:13:27.518Z,90.2
2023-03-03T13:14:30.619Z,89.9
2023-03-03T13:15:44.221Z,89.9
2023-03-03T13:17:00.840Z,90
2023-03-03T13:18:04.349Z,90
2023-03-03T13:19:07.133Z,90
2023-03-03T13:20:09.955Z,89.5
2023-03-03T13:21:13.034Z,89.4
2023-03-03T13:22:16.420Z,88.9
2023-03-03T13:23:18.950Z,88.8
2023-03-03T13:24:22.745Z,89.1
2023-03-03T13:25:25.623Z,89.3
2023-03-03T13:26:32.662Z,89.4
2023-03-03T13:27:35.567Z,88.6
2023-03-03T13:28:38.640Z,88.4
2023-03-03T13:29:41.598Z,88.9
2023-03-03T13:30:45.561Z,88.8
2023-03-03T13:31:49.084Z,88.6
2023-03-03T13:32:52.826Z,88.8
2023-03-03T13:33:55.908Z,88.8
2023-03-03T13:34:58.999Z,89.1
2023-03-03T13:36:02.417Z,89
2023-03-03T13:37:05.733Z,89.1
2023-03-03T13:38:08.732Z,89
2023-03-03T13:39:11.619Z,88.7
2023-03-03T13:40:15.001Z,89
2023-03-03T13:41:18.473Z,89.1
2023-03-03T13:42:21.860Z,88.9
2023-03-03T13:43:24.907Z,88.8
2023-03-03T13:44:27.813Z,88.7
2023-03-03T13:45:31.773Z,88.9
2023-03-03T13:46:37.304Z,89
2023-03-03T13:47:40.283Z,89.2
2023-03-03T13:48:43.626Z,89.1
2023-03-03T13:49:49.207Z,89.4
2023-03-03T13:50:52.547Z,89.4
2023-03-03T13:51:55.633Z,89.2
2023-03-03T13:52:59.073Z,88.9
2023-03-03T13:54:02.440Z,88.8
2023-03-03T13:55:05.818Z,88.3
2023-03-03T13:56:09.280Z,88.4
2023-03-03T13:57:12.619Z,88.9
2023-03-03T13:58:16.414Z,89.2
2023-03-03T13:59:19.524Z,89.3
2023-03-03T14:00:22.374Z,89.1
2023-03-03T14:01:25.503Z,88.9
2023-03-03T14:02:29.937Z,88.8
2023-03-03T14:03:33.337Z,88.9
2023-03-03T14:04:36.841Z,89.1
2023-03-03T14:05:40.324Z,89.4
2023-03-03T14:06:43.360Z,89
2023-03-03T14:07:45.884Z,88.9
2023-03-03T14:08:48.997Z,88.7
2023-03-03T14:09:52.515Z,88.8
2023-03-03T14:10:55.789Z,88.9
2023-03-03T14:11:59.307Z,89